Time,TemperatureF,DewpointF,PressureIn,WindDirection,WindDirectionDegrees,WindSpeedMPH,WindSpeedGustMPH,Humidity,HourlyPrecipIn,Conditions,Clouds,dailyrainin,SolarRadiationWatts/m^2,SoftwareType,DateUTC
2013-04-07 02:02:00,40.4,32.0,30.14,SSE,159,0.0,5.0,72,0.00,,,0.00,0,weatherlink.com 1.10,2013-04-07 08:02:00,
2013-04-07 02:38:00,38.4,32.0,30.13,WSW,248,0.0,1.0,78,0.00,,,0.00,0,weatherlink.com 1.10,2013-04-07 08:38:00,
2013-04-07 02:44:00,38.5,32.0,30.12,WSW,248,0.0,1.0,76,0.00,,,0.00,0,weatherlink.com 1.10,2013-04-07 08:44:00,
2013-04-07 02:59:00,38.7,31.0,30.11,WSW,247,0.0,0.0,75,0.00,,,0.00,0,weatherlink.com 1.10,2013-04-07 08:59:00,
2013-04-07 03:14:00,38.9,31.0,30.11,South,190,1.0,2.0,74,0.00,,,0.00,0,weatherlink.com 1.10,2013-04-07 09:14:00,
2013-04-07 03:29:00,39.1,32.0,30.10,South,190,0.0,1.0,75,0.00,,,0.00,0,weatherlink.com 1.10,2013-04-07 09:29:00,
2013-04-07 04:00:00,36.6,32.0,30.09,South,190,0.0,3.0,84,0.00,,,0.00,0,weatherlink.com 1.10,2013-04-07 10:00:00,
2013-04-07 04:15:00,36.3,32.0,30.09,South,190,0.0,0.0,85,0.00,,,0.00,0,weatherlink.com 1.10,2013-04-07 10:15:00,
2013-04-07 04:30:00,36.8,32.0,30.07,South,190,0.0,2.0,84,0.00,,,0.00,0,weatherlink.com 1.10,2013-04-07 10:30:00,
2013-04-07 04:45:00,36.8,33.0,30.07,South,190,1.0,3.0,85,0.00,,,0.00,0,weatherlink.com 1.10,2013-04-07 10:45:00,
2013-04-07 05:00:00,36.5,32.0,30.06,South,190,0.0,2.0,83,0.00,,,0.00,0,weatherlink.com 1.10,2013-04-07 11:00:00,
2013-04-07 05:15:00,36.6,32.0,30.06,South,190,0.0,0.0,82,0.00,,,0.00,0,weatherlink.com 1.10,2013-04-07 11:15:00,
2013-04-07 05:30:00,36.8,32.0,30.05,South,190,0.0,2.0,81,0.00,,,0.00,0,weatherlink.com 1.10,2013-04-07 11:30:00,
2013-04-07 05:45:00,36.9,32.0,30.05,NW,325,3.0,4.0,82,0.00,,,0.00,0,weatherlink.com 1.10,2013-04-07 11:45:00,
2013-04-07 06:00:00,35.9,32.0,30.05,NW,325,0.0,3.0,86,0.00,,,0.00,0,weatherlink.com 1.10,2013-04-07 12:00:00,
2013-04-07 06:15:00,36.2,32.0,30.04,ENE,67,1.0,3.0,85,0.00,,,0.00,0,weatherlink.com 1.10,2013-04-07 12:15:00,
2013-04-07 06:30:00,36.8,32.0,30.04,East,82,1.0,3.0,83,0.00,,,0.00,0,weatherlink.com 1.10,2013-04-07 12:30:00,
2013-04-07 06:45:00,37.4,32.0,30.03,SSE,161,7.0,7.0,82,0.00,,,0.00,0,weatherlink.com 1.10,2013-04-07 12:45:00,
2013-04-07 07:00:00,37.6,33.0,30.02,SSE,163,7.0,8.0,83,0.00,,,0.00,0,weatherlink.com 1.10,2013-04-07 13:00:00,
2013-04-07 07:15:00,37.6,33.0,30.02,South,173,4.0,11.0,84,0.00,,,0.00,5,weatherlink.com 1.10,2013-04-07 13:15:00,
2013-04-07 07:30:00,37.6,34.0,30.02,SSE,168,8.0,13.0,85,0.00,,,0.00,14,weatherlink.com 1.10,2013-04-07 13:30:00,
2013-04-07 07:45:00,37.4,34.0,30.01,SSE,167,6.0,12.0,86,0.00,,,0.00,21,weatherlink.com 1.10,2013-04-07 13:45:00,
2013-04-07 08:00:00,37.2,34.0,30.01,SSE,161,8.0,11.0,87,0.01,,,0.01,16,weatherlink.com 1.10,2013-04-07 14:00:00,
2013-04-07 08:15:00,37.1,34.0,30.00,SSE,166,7.0,13.0,87,0.01,,,0.01,47,weatherlink.com 1.10,2013-04-07 14:15:00,
2013-04-07 08:30:00,37.0,34.0,30.00,South,182,6.0,10.0,89,0.01,,,0.01,62,weatherlink.com 1.10,2013-04-07 14:30:00,
2013-04-07 08:45:00,37.2,34.0,29.99,South,183,10.0,12.0,89,0.01,,,0.01,116,weatherlink.com 1.10,2013-04-07 14:45:00,
2013-04-07 09:00:00,37.4,34.0,29.99,South,169,5.0,11.0,88,0.00,,,0.01,76,weatherlink.com 1.10,2013-04-07 15:00:00,
2013-04-07 09:15:00,37.5,35.0,29.98,South,190,12.0,14.0,89,0.00,,,0.01,77,weatherlink.com 1.10,2013-04-07 15:15:00,
2013-04-07 09:30:00,37.5,34.0,29.97,SSW,193,11.0,15.0,88,0.00,,,0.01,97,weatherlink.com 1.10,2013-04-07 15:30:00,
2013-04-07 09:45:00,37.3,34.0,29.97,SSW,200,11.0,14.0,89,0.01,,,0.02,54,weatherlink.com 1.10,2013-04-07 15:45:00,
2013-04-07 10:00:00,37.3,35.0,29.96,South,185,5.0,13.0,90,0.01,,,0.02,95,weatherlink.com 1.10,2013-04-07 16:00:00,
2013-04-07 10:15:00,37.5,35.0,29.96,South,191,11.0,13.0,91,0.01,,,0.02,113,weatherlink.com 1.10,2013-04-07 16:15:00,
2013-04-07 10:31:00,37.7,35.0,29.96,South,185,6.0,13.0,91,0.02,,,0.03,91,weatherlink.com 1.10,2013-04-07 16:31:00,
2013-04-07 10:46:00,37.5,35.0,29.96,SSW,200,11.0,13.0,91,0.02,,,0.04,130,weatherlink.com 1.10,2013-04-07 16:46:00,
2013-04-07 11:01:00,37.7,35.0,29.96,SSW,209,12.0,14.0,91,0.02,,,0.04,188,weatherlink.com 1.10,2013-04-07 17:01:00,
2013-04-07 11:16:00,37.8,36.0,29.96,SW,214,11.0,15.0,91,0.03,,,0.05,151,weatherlink.com 1.10,2013-04-07 17:16:00,
2013-04-07 11:31:00,38.4,36.0,29.95,SSW,206,12.0,17.0,92,0.02,,,0.05,232,weatherlink.com 1.10,2013-04-07 17:31:00,
2013-04-07 11:46:00,38.6,36.0,29.95,SSW,205,10.0,12.0,91,0.01,,,0.05,287,weatherlink.com 1.10,2013-04-07 17:46:00,
2013-04-07 12:01:00,39.1,37.0,29.95,SSW,202,7.0,10.0,93,0.01,,,0.05,304,weatherlink.com 1.10,2013-04-07 18:01:00,
2013-04-07 12:16:00,39.5,38.0,29.95,SSW,199,0.0,7.0,93,0.00,,,0.05,227,weatherlink.com 1.10,2013-04-07 18:16:00,
2013-04-07 13:31:00,43.4,40.0,29.92,SW,219,6.0,8.0,87,0.01,,,0.06,420,weatherlink.com 1.10,2013-04-07 19:31:00,
2013-04-07 14:16:00,43.2,38.0,29.93,NNW,341,1.0,14.0,82,0.00,,,0.06,322,weatherlink.com 1.10,2013-04-07 20:16:00,
2013-04-07 14:31:00,43.5,38.0,29.93,NNW,340,9.0,10.0,80,0.00,,,0.06,318,weatherlink.com 1.10,2013-04-07 20:31:00,
2013-04-07 15:01:00,45.1,37.0,29.93,NE,40,16.0,19.0,72,0.01,,,0.07,350,weatherlink.com 1.10,2013-04-07 21:01:00,
2013-04-07 15:16:00,45.9,36.0,29.94,NNW,332,6.0,9.0,68,0.01,,,0.07,357,weatherlink.com 1.10,2013-04-07 21:16:00,
2013-04-07 15:31:00,46.3,37.0,29.94,SW,221,9.0,12.0,69,0.01,,,0.07,302,weatherlink.com 1.10,2013-04-07 21:31:00,
2013-04-07 15:46:00,46.1,39.0,29.94,South,169,7.0,14.0,75,0.00,,,0.07,278,weatherlink.com 1.10,2013-04-07 21:46:00,
2013-04-07 16:01:00,45.1,38.0,29.94,SSE,148,8.0,18.0,76,0.00,,,0.07,243,weatherlink.com 1.10,2013-04-07 22:01:00,
2013-04-07 16:31:00,45.6,36.0,29.95,SE,135,7.0,12.0,69,0.00,,,0.07,185,weatherlink.com 1.10,2013-04-07 22:31:00,
2013-04-07 17:01:00,46.5,34.0,29.95,South,185,0.0,9.0,62,0.00,,,0.07,232,weatherlink.com 1.10,2013-04-07 23:01:00,
2013-04-07 17:16:00,47.0,34.0,29.95,NW,315,5.0,6.0,62,0.00,,,0.07,171,weatherlink.com 1.10,2013-04-07 23:16:00,
2013-04-07 17:31:00,47.0,34.0,29.96,NNW,346,16.0,19.0,62,0.00,,,0.07,149,weatherlink.com 1.10,2013-04-07 23:31:00,
2013-04-07 17:46:00,44.7,30.0,29.97,NW,320,4.0,20.0,57,0.00,,,0.07,97,weatherlink.com 1.10,2013-04-07 23:46:00,
2013-04-07 18:01:00,45.2,29.0,29.98,NW,325,2.0,18.0,54,0.00,,,0.07,74,weatherlink.com 1.10,2013-04-08 00:01:00,
2013-04-07 18:16:00,44.9,29.0,29.98,NNE,20,14.0,19.0,53,0.00,,,0.07,190,weatherlink.com 1.10,2013-04-08 00:16:00,
2013-04-07 18:31:00,45.3,26.0,29.98,North,5,22.0,28.0,48,0.00,,,0.07,151,weatherlink.com 1.10,2013-04-08 00:31:00,
2013-04-07 18:46:00,44.9,27.0,29.98,North,9,25.0,27.0,50,0.00,,,0.07,100,weatherlink.com 1.10,2013-04-08 00:46:00,
2013-04-07 19:01:00,44.4,28.0,29.99,North,5,17.0,25.0,53,0.00,,,0.07,62,weatherlink.com 1.10,2013-04-08 01:01:00,
2013-04-07 19:16:00,44.0,29.0,30.00,North,355,24.0,30.0,55,0.00,,,0.07,26,weatherlink.com 1.10,2013-04-08 01:16:00,
2013-04-07 19:32:00,39.6,32.0,30.02,NNW,344,18.0,29.0,73,0.00,,,0.07,21,weatherlink.com 1.10,2013-04-08 01:32:00,
2013-04-07 19:47:00,38.6,32.0,30.02,North,5,26.0,31.0,76,0.00,,,0.07,14,weatherlink.com 1.10,2013-04-08 01:47:00,
2013-04-07 20:01:00,38.9,32.0,30.01,NNE,26,20.0,31.0,75,0.00,,,0.07,14,weatherlink.com 1.10,2013-04-08 02:01:00,
2013-04-07 20:17:00,39.8,31.0,30.01,NNE,32,13.0,19.0,70,0.00,,,0.07,0,weatherlink.com 1.10,2013-04-08 02:17:00,
2013-04-07 20:31:00,39.1,31.0,30.02,NNE,15,9.0,16.0,74,0.00,,,0.07,0,weatherlink.com 1.10,2013-04-08 02:31:00,
2013-04-07 21:02:00,40.0,31.0,30.04,NNE,28,8.0,8.0,70,0.00,,,0.07,0,weatherlink.com 1.10,2013-04-08 03:02:00,
2013-04-07 21:17:00,39.7,31.0,30.05,ENE,57,5.0,9.0,70,0.00,,,0.07,0,weatherlink.com 1.10,2013-04-08 03:17:00,
2013-04-07 21:31:00,39.8,30.0,30.05,NNE,13,4.0,7.0,68,0.00,,,0.07,0,weatherlink.com 1.10,2013-04-08 03:31:00,
2013-04-07 21:47:00,39.2,30.0,30.05,NE,44,3.0,5.0,70,0.00,,,0.07,0,weatherlink.com 1.10,2013-04-08 03:47:00,
2013-04-07 22:02:00,38.9,30.0,30.06,NE,44,9.0,9.0,70,0.00,,,0.07,0,weatherlink.com 1.10,2013-04-08 04:02:00,
2013-04-07 22:17:00,38.9,29.0,30.07,NE,49,3.0,8.0,69,0.00,,,0.07,0,weatherlink.com 1.10,2013-04-08 04:17:00,
2013-04-07 22:32:00,38.9,30.0,30.07,NNE,28,1.0,4.0,70,0.00,,,0.07,0,weatherlink.com 1.10,2013-04-08 04:32:00,
2013-04-07 22:47:00,38.4,30.0,30.07,ENE,65,0.0,4.0,71,0.00,,,0.07,0,weatherlink.com 1.10,2013-04-08 04:47:00,
2013-04-07 23:02:00,38.4,30.0,30.07,NNW,340,6.0,7.0,72,0.00,,,0.07,0,weatherlink.com 1.10,2013-04-08 05:02:00,
2013-04-07 23:17:00,38.0,30.0,30.08,NE,45,3.0,5.0,72,0.00,,,0.07,0,weatherlink.com 1.10,2013-04-08 05:17:00,
2013-04-07 23:32:00,37.3,29.0,30.08,NE,36,10.0,10.0,73,0.00,,,0.07,0,weatherlink.com 1.10,2013-04-08 05:32:00,
2013-04-07 23:47:00,37.9,30.0,30.08,NE,43,10.0,13.0,72,0.00,,,0.07,0,weatherlink.com 1.10,2013-04-08 05:47:00,